sensor_id;sensor_type;location;lat;lon;timestamp;temperature;humidity
70826;SHT31;58446;41.490;22.098;2023-11-21T00:00:29;6.71;69.06
70826;SHT31;58446;41.490;22.098;2023-11-21T00:02:55;6.91;68.85
70826;SHT31;58446;41.490;22.098;2023-11-21T00:05:20;6.96;68.49
70826;SHT31;58446;41.490;22.098;2023-11-21T00:07:48;6.88;68.46
70826;SHT31;58446;41.490;22.098;2023-11-21T00:10:15;6.94;68.54
70826;SHT31;58446;41.490;22.098;2023-11-21T00:12:41;6.96;68.45
70826;SHT31;58446;41.490;22.098;2023-11-21T00:15:08;7.22;67.83
70826;SHT31;58446;41.490;22.098;2023-11-21T00:17:48;7.19;67.84
70826;SHT31;58446;41.490;22.098;2023-11-21T00:20:14;7.23;67.66
70826;SHT31;58446;41.490;22.098;2023-11-21T00:22:41;7.16;67.53
70826;SHT31;58446;41.490;22.098;2023-11-21T00:25:07;7.01;68.08
70826;SHT31;58446;41.490;22.098;2023-11-21T00:27:39;6.61;67.92
70826;SHT31;58446;41.490;22.098;2023-11-21T00:30:05;6.74;68.66
70826;SHT31;58446;41.490;22.098;2023-11-21T00:32:32;6.91;68.58
70826;SHT31;58446;41.490;22.098;2023-11-21T00:34:57;6.95;68.49
70826;SHT31;58446;41.490;22.098;2023-11-21T00:37:24;6.84;68.61
70826;SHT31;58446;41.490;22.098;2023-11-21T00:39:50;6.78;68.61
70826;SHT31;58446;41.490;22.098;2023-11-21T00:42:16;6.87;68.71
70826;SHT31;58446;41.490;22.098;2023-11-21T00:44:42;7.06;68.08
70826;SHT31;58446;41.490;22.098;2023-11-21T00:47:07;7.05;67.98
70826;SHT31;58446;41.490;22.098;2023-11-21T00:49:33;7.03;67.59
70826;SHT31;58446;41.490;22.098;2023-11-21T00:51:59;7.03;67.69
70826;SHT31;58446;41.490;22.098;2023-11-21T00:54:24;7.06;67.59
70826;SHT31;58446;41.490;22.098;2023-11-21T00:56:50;6.92;67.86
70826;SHT31;58446;41.490;22.098;2023-11-21T00:59:16;6.75;67.98
70826;SHT31;58446;41.490;22.098;2023-11-21T01:01:41;6.65;68.35
70826;SHT31;58446;41.490;22.098;2023-11-21T01:04:07;6.58;68.37
70826;SHT31;58446;41.490;22.098;2023-11-21T01:06:33;6.72;68.47
70826;SHT31;58446;41.490;22.098;2023-11-21T01:09:01;6.75;68.67
70826;SHT31;58446;41.490;22.098;2023-11-21T01:11:30;6.75;68.72
70826;SHT31;58446;41.490;22.098;2023-11-21T01:13:55;6.84;68.52
70826;SHT31;58446;41.490;22.098;2023-11-21T01:16:21;6.92;68.34
70826;SHT31;58446;41.490;22.098;2023-11-21T01:18:47;6.89;68.15
70826;SHT31;58446;41.490;22.098;2023-11-21T01:21:13;6.77;68.53
70826;SHT31;58446;41.490;22.098;2023-11-21T01:23:39;6.74;68.36
70826;SHT31;58446;41.490;22.098;2023-11-21T01:26:05;6.63;68.23
70826;SHT31;58446;41.490;22.098;2023-11-21T01:28:30;6.61;69.02
70826;SHT31;58446;41.490;22.098;2023-11-21T01:30:56;6.94;68.17
70826;SHT31;58446;41.490;22.098;2023-11-21T01:33:22;6.96;67.77
70826;SHT31;58446;41.490;22.098;2023-11-21T01:35:50;6.89;67.90
70826;SHT31;58446;41.490;22.098;2023-11-21T01:38:18;6.95;67.98
70826;SHT31;58446;41.490;22.098;2023-11-21T01:40:44;6.94;68.11
70826;SHT31;58446;41.490;22.098;2023-11-21T01:43:10;6.99;67.98
70826;SHT31;58446;41.490;22.098;2023-11-21T01:45:35;6.85;68.29
70826;SHT31;58446;41.490;22.098;2023-11-21T01:48:02;6.70;67.77
70826;SHT31;58446;41.490;22.098;2023-11-21T01:50:29;6.71;68.69
70826;SHT31;58446;41.490;22.098;2023-11-21T01:52:55;6.88;68.07
70826;SHT31;58446;41.490;22.098;2023-11-21T01:55:21;7.11;67.42
70826;SHT31;58446;41.490;22.098;2023-11-21T01:57:47;6.95;67.73
70826;SHT31;58446;41.490;22.098;2023-11-21T02:00:13;6.75;67.93
70826;SHT31;58446;41.490;22.098;2023-11-21T02:02:45;6.36;67.89
70826;SHT31;58446;41.490;22.098;2023-11-21T02:05:12;6.43;68.71
70826;SHT31;58446;41.490;22.098;2023-11-21T02:07:39;6.54;68.82
70826;SHT31;58446;41.490;22.098;2023-11-21T02:10:07;6.60;68.75
70826;SHT31;58446;41.490;22.098;2023-11-21T02:12:33;6.60;68.65
70826;SHT31;58446;41.490;22.098;2023-11-21T02:15:02;6.60;68.72
70826;SHT31;58446;41.490;22.098;2023-11-21T02:17:28;6.61;68.42
70826;SHT31;58446;41.490;22.098;2023-11-21T02:19:54;6.50;68.59
70826;SHT31;58446;41.490;22.098;2023-11-21T02:22:19;6.40;68.78
70826;SHT31;58446;41.490;22.098;2023-11-21T02:24:46;6.53;68.76
70826;SHT31;58446;41.490;22.098;2023-11-21T02:27:13;6.53;68.65
70826;SHT31;58446;41.490;22.098;2023-11-21T02:29:39;6.48;68.74
70826;SHT31;58446;41.490;22.098;2023-11-21T02:32:05;6.38;68.59
70826;SHT31;58446;41.490;22.098;2023-11-21T02:34:30;6.34;69.37
70826;SHT31;58446;41.490;22.098;2023-11-21T02:36:56;6.54;68.92
70826;SHT31;58446;41.490;22.098;2023-11-21T02:39:22;6.63;68.58
70826;SHT31;58446;41.490;22.098;2023-11-21T02:41:49;6.65;68.67
70826;SHT31;58446;41.490;22.098;2023-11-21T02:44:15;6.60;68.82
70826;SHT31;58446;41.490;22.098;2023-11-21T02:46:41;6.54;68.78
70826;SHT31;58446;41.490;22.098;2023-11-21T02:49:06;6.55;68.97
70826;SHT31;58446;41.490;22.098;2023-11-21T02:51:36;6.57;69.22
70826;SHT31;58446;41.490;22.098;2023-11-21T02:54:05;6.74;68.89
70826;SHT31;58446;41.490;22.098;2023-11-21T02:56:32;6.91;67.87
70826;SHT31;58446;41.490;22.098;2023-11-21T02:58:59;6.74;67.73
70826;SHT31;58446;41.490;22.098;2023-11-21T03:01:26;6.70;68.02
70826;SHT31;58446;41.490;22.098;2023-11-21T03:03:52;6.55;68.19
70826;SHT31;58446;41.490;22.098;2023-11-21T03:06:19;6.54;68.53
70826;SHT31;58446;41.490;22.098;2023-11-21T03:08:45;6.01;69.56
70826;SHT31;58446;41.490;22.098;2023-11-21T03:11:11;6.27;69.65
70826;SHT31;58446;41.490;22.098;2023-11-21T03:13:39;6.32;69.68
70826;SHT31;58446;41.490;22.098;2023-11-21T03:16:10;6.37;69.59
70826;SHT31;58446;41.490;22.098;2023-11-21T03:18:37;6.41;69.53
70826;SHT31;58446;41.490;22.098;2023-11-21T03:21:03;6.37;69.54
70826;SHT31;58446;41.490;22.098;2023-11-21T03:23:30;6.47;69.27
70826;SHT31;58446;41.490;22.098;2023-11-21T03:25:56;6.55;68.91
70826;SHT31;58446;41.490;22.098;2023-11-21T03:28:22;6.68;68.76
70826;SHT31;58446;41.490;22.098;2023-11-21T03:30:49;6.80;68.42
70826;SHT31;58446;41.490;22.098;2023-11-21T03:33:14;6.64;68.54
70826;SHT31;58446;41.490;22.098;2023-11-21T03:35:40;6.63;68.70
70826;SHT31;58446;41.490;22.098;2023-11-21T03:38:07;6.50;69.19
70826;SHT31;58446;41.490;22.098;2023-11-21T03:40:33;6.16;68.76
70826;SHT31;58446;41.490;22.098;2023-11-21T03:42:58;6.17;70.33
70826;SHT31;58446;41.490;22.098;2023-11-21T03:45:24;5.98;70.26
70826;SHT31;58446;41.490;22.098;2023-11-21T03:47:50;6.17;70.50
70826;SHT31;58446;41.490;22.098;2023-11-21T03:50:15;5.20;73.01
70826;SHT31;58446;41.490;22.098;2023-11-21T03:52:41;5.37;73.73
70826;SHT31;58446;41.490;22.098;2023-11-21T03:55:08;4.84;76.11
70826;SHT31;58446;41.490;22.098;2023-11-21T03:57:34;5.37;73.75
70826;SHT31;58446;41.490;22.098;2023-11-21T03:59:59;5.56;72.57
70826;SHT31;58446;41.490;22.098;2023-11-21T04:02:25;5.30;72.42
70826;SHT31;58446;41.490;22.098;2023-11-21T04:04:52;5.14;73.33
70826;SHT31;58446;41.490;22.098;2023-11-21T04:07:17;5.44;73.46
70826;SHT31;58446;41.490;22.098;2023-11-21T04:09:43;5.79;72.48
70826;SHT31;58446;41.490;22.098;2023-11-21T04:12:09;6.02;71.85
70826;SHT31;58446;41.490;22.098;2023-11-21T04:14:35;6.16;70.98
70826;SHT31;58446;41.490;22.098;2023-11-21T04:17:01;6.16;70.76
70826;SHT31;58446;41.490;22.098;2023-11-21T04:19:26;6.09;70.91
70826;SHT31;58446;41.490;22.098;2023-11-21T04:21:52;6.16;70.80
70826;SHT31;58446;41.490;22.098;2023-11-21T04:24:18;6.26;70.41
70826;SHT31;58446;41.490;22.098;2023-11-21T04:26:44;6.23;70.23
70826;SHT31;58446;41.490;22.098;2023-11-21T04:29:10;6.16;69.99
70826;SHT31;58446;41.490;22.098;2023-11-21T04:31:35;6.16;70.36
70826;SHT31;58446;41.490;22.098;2023-11-21T04:34:01;6.07;69.90
70826;SHT31;58446;41.490;22.098;2023-11-21T04:36:29;6.19;70.26
70826;SHT31;58446;41.490;22.098;2023-11-21T04:38:56;5.98;70.22
70826;SHT31;58446;41.490;22.098;2023-11-21T04:41:22;6.09;70.47
70826;SHT31;58446;41.490;22.098;2023-11-21T04:43:48;6.22;70.34
70826;SHT31;58446;41.490;22.098;2023-11-21T04:46:14;6.07;70.50
70826;SHT31;58446;41.490;22.098;2023-11-21T04:48:40;6.07;70.37
70826;SHT31;58446;41.490;22.098;2023-11-21T04:51:06;6.13;69.97
70826;SHT31;58446;41.490;22.098;2023-11-21T04:53:32;6.13;70.25
70826;SHT31;58446;41.490;22.098;2023-11-21T04:55:57;6.32;69.67
70826;SHT31;58446;41.490;22.098;2023-11-21T04:58:24;6.22;69.54
70826;SHT31;58446;41.490;22.098;2023-11-21T05:00:50;6.12;69.89
70826;SHT31;58446;41.490;22.098;2023-11-21T05:03:15;6.12;69.26
70826;SHT31;58446;41.490;22.098;2023-11-21T05:05:42;6.07;69.35
70826;SHT31;58446;41.490;22.098;2023-11-21T05:08:08;5.98;69.87
70826;SHT31;58446;41.490;22.098;2023-11-21T05:10:35;5.61;69.39
70826;SHT31;58446;41.490;22.098;2023-11-21T05:13:03;5.04;70.99
70826;SHT31;58446;41.490;22.098;2023-11-21T05:15:29;5.04;72.68
70826;SHT31;58446;41.490;22.098;2023-11-21T05:17:55;4.84;72.29
70826;SHT31;58446;41.490;22.098;2023-11-21T05:20:25;5.14;72.93
70826;SHT31;58446;41.490;22.098;2023-11-21T05:22:51;5.45;72.13
70826;SHT31;58446;41.490;22.098;2023-11-21T05:25:17;5.73;71.10
70826;SHT31;58446;41.490;22.098;2023-11-21T05:27:46;5.72;70.81
70826;SHT31;58446;41.490;22.098;2023-11-21T05:30:13;5.69;70.89
70826;SHT31;58446;41.490;22.098;2023-11-21T05:32:40;5.78;70.69
70826;SHT31;58446;41.490;22.098;2023-11-21T05:35:09;5.65;70.99
70826;SHT31;58446;41.490;22.098;2023-11-21T05:37:39;5.47;70.87
70826;SHT31;58446;41.490;22.098;2023-11-21T05:40:06;5.51;70.97
70826;SHT31;58446;41.490;22.098;2023-11-21T05:42:33;5.27;72.20
70826;SHT31;58446;41.490;22.098;2023-11-21T05:44:59;5.24;72.57
70826;SHT31;58446;41.490;22.098;2023-11-21T05:47:24;4.32;76.38
70826;SHT31;58446;41.490;22.098;2023-11-21T05:49:53;4.77;75.55
70826;SHT31;58446;41.490;22.098;2023-11-21T05:52:19;4.25;77.04
70826;SHT31;58446;41.490;22.098;2023-11-21T05:54:46;4.12;78.06
70826;SHT31;58446;41.490;22.098;2023-11-21T05:57:11;5.00;75.37
70826;SHT31;58446;41.490;22.098;2023-11-21T05:59:37;5.45;73.44
70826;SHT31;58446;41.490;22.098;2023-11-21T06:02:03;5.78;72.39
70826;SHT31;58446;41.490;22.098;2023-11-21T06:04:29;6.09;71.24
70826;SHT31;58446;41.490;22.098;2023-11-21T06:06:55;6.24;70.53
70826;SHT31;58446;41.490;22.098;2023-11-21T06:09:21;6.40;70.04
70826;SHT31;58446;41.490;22.098;2023-11-21T06:11:47;6.44;69.78
70826;SHT31;58446;41.490;22.098;2023-11-21T06:14:13;6.45;69.94
70826;SHT31;58446;41.490;22.098;2023-11-21T06:16:40;6.41;69.95
70826;SHT31;58446;41.490;22.098;2023-11-21T06:19:06;6.37;70.05
70826;SHT31;58446;41.490;22.098;2023-11-21T06:21:31;6.26;70.05
70826;SHT31;58446;41.490;22.098;2023-11-21T06:23:58;6.54;69.41
70826;SHT31;58446;41.490;22.098;2023-11-21T06:26:23;6.87;68.44
70826;SHT31;58446;41.490;22.098;2023-11-21T06:28:50;7.01;68.29
70826;SHT31;58446;41.490;22.098;2023-11-21T06:31:16;7.20;67.50
70826;SHT31;58446;41.490;22.098;2023-11-21T06:33:43;7.11;67.59
70826;SHT31;58446;41.490;22.098;2023-11-21T06:36:09;7.11;67.82
70826;SHT31;58446;41.490;22.098;2023-11-21T06:38:37;7.12;67.85
70826;SHT31;58446;41.490;22.098;2023-11-21T06:41:03;7.01;68.93
70826;SHT31;58446;41.490;22.098;2023-11-21T06:43:29;6.30;71.20
70826;SHT31;58446;41.490;22.098;2023-11-21T06:45:57;6.30;71.66
70826;SHT31;58446;41.490;22.098;2023-11-21T06:48:22;6.68;70.41
70826;SHT31;58446;41.490;22.098;2023-11-21T06:50:48;6.88;69.79
70826;SHT31;58446;41.490;22.098;2023-11-21T06:53:14;7.20;68.46
70826;SHT31;58446;41.490;22.098;2023-11-21T06:55:40;7.19;69.17
70826;SHT31;58446;41.490;22.098;2023-11-21T06:58:06;7.36;68.25
70826;SHT31;58446;41.490;22.098;2023-11-21T07:00:31;7.50;67.60
70826;SHT31;58446;41.490;22.098;2023-11-21T07:02:57;7.29;68.78
70826;SHT31;58446;41.490;22.098;2023-11-21T07:05:24;7.39;68.50
70826;SHT31;58446;41.490;22.098;2023-11-21T07:07:49;7.26;68.25
70826;SHT31;58446;41.490;22.098;2023-11-21T07:10:15;7.06;70.48
70826;SHT31;58446;41.490;22.098;2023-11-21T07:12:42;6.91;70.50
70826;SHT31;58446;41.490;22.098;2023-11-21T07:15:08;7.13;69.72
70826;SHT31;58446;41.490;22.098;2023-11-21T07:17:37;7.19;69.11
70826;SHT31;58446;41.490;22.098;2023-11-21T07:20:05;7.08;69.79
70826;SHT31;58446;41.490;22.098;2023-11-21T07:22:32;7.27;69.31
70826;SHT31;58446;41.490;22.098;2023-11-21T07:24:57;6.95;70.68
70826;SHT31;58446;41.490;22.098;2023-11-21T07:27:23;6.89;70.79
70826;SHT31;58446;41.490;22.098;2023-11-21T07:29:49;6.81;71.09
70826;SHT31;58446;41.490;22.098;2023-11-21T07:32:15;6.95;71.04
70826;SHT31;58446;41.490;22.098;2023-11-21T07:34:41;7.15;70.39
70826;SHT31;58446;41.490;22.098;2023-11-21T07:37:07;7.11;71.38
70826;SHT31;58446;41.490;22.098;2023-11-21T07:39:35;6.78;72.71
70826;SHT31;58446;41.490;22.098;2023-11-21T07:42:02;7.03;72.55
70826;SHT31;58446;41.490;22.098;2023-11-21T07:44:29;6.95;73.17
70826;SHT31;58446;41.490;22.098;2023-11-21T07:46:55;6.96;73.19
70826;SHT31;58446;41.490;22.098;2023-11-21T07:49:24;7.25;73.20
70826;SHT31;58446;41.490;22.098;2023-11-21T07:51:50;7.52;71.99
70826;SHT31;58446;41.490;22.098;2023-11-21T07:54:16;7.75;71.31
70826;SHT31;58446;41.490;22.098;2023-11-21T07:56:42;8.24;68.73
70826;SHT31;58446;41.490;22.098;2023-11-21T07:59:08;8.29;67.66
70826;SHT31;58446;41.490;22.098;2023-11-21T08:01:33;8.24;68.42
70826;SHT31;58446;41.490;22.098;2023-11-21T08:03:59;8.20;68.56
70826;SHT31;58446;41.490;22.098;2023-11-21T08:06:29;7.90;71.34
70826;SHT31;58446;41.490;22.098;2023-11-21T08:08:56;8.09;68.56
70826;SHT31;58446;41.490;22.098;2023-11-21T08:11:22;8.09;68.79
70826;SHT31;58446;41.490;22.098;2023-11-21T08:13:49;8.08;69.51
70826;SHT31;58446;41.490;22.098;2023-11-21T08:16:15;8.06;69.01
70826;SHT31;58446;41.490;22.098;2023-11-21T08:18:42;7.99;69.40
70826;SHT31;58446;41.490;22.098;2023-11-21T08:21:08;7.91;70.22
70826;SHT31;58446;41.490;22.098;2023-11-21T08:23:34;7.99;69.59
70826;SHT31;58446;41.490;22.098;2023-11-21T08:26:00;7.84;71.27
70826;SHT31;58446;41.490;22.098;2023-11-21T08:28:27;7.84;70.40
70826;SHT31;58446;41.490;22.098;2023-11-21T08:30:53;7.84;70.41
70826;SHT31;58446;41.490;22.098;2023-11-21T08:33:19;7.81;70.53
70826;SHT31;58446;41.490;22.098;2023-11-21T08:35:45;7.73;72.15
70826;SHT31;58446;41.490;22.098;2023-11-21T08:38:12;7.56;72.65
70826;SHT31;58446;41.490;22.098;2023-11-21T08:40:38;7.62;72.25
70826;SHT31;58446;41.490;22.098;2023-11-21T08:43:03;7.81;71.04
70826;SHT31;58446;41.490;22.098;2023-11-21T08:45:33;7.84;71.54
70826;SHT31;58446;41.490;22.098;2023-11-21T08:48:02;7.97;70.59
70826;SHT31;58446;41.490;22.098;2023-11-21T08:50:28;8.05;70.08
70826;SHT31;58446;41.490;22.098;2023-11-21T08:52:54;8.08;70.02
70826;SHT31;58446;41.490;22.098;2023-11-21T08:55:20;7.99;71.81
70826;SHT31;58446;41.490;22.098;2023-11-21T08:57:46;7.83;72.72
70826;SHT31;58446;41.490;22.098;2023-11-21T09:00:12;7.71;73.11
70826;SHT31;58446;41.490;22.098;2023-11-21T09:02:43;7.75;71.81
70826;SHT31;58446;41.490;22.098;2023-11-21T09:05:13;7.84;71.71
70826;SHT31;58446;41.490;22.098;2023-11-21T09:07:40;7.73;72.51
70826;SHT31;58446;41.490;22.098;2023-11-21T09:10:07;7.71;73.64
70826;SHT31;58446;41.490;22.098;2023-11-21T09:12:35;7.97;71.33
70826;SHT31;58446;41.490;22.098;2023-11-21T09:15:05;7.84;73.35
70826;SHT31;58446;41.490;22.098;2023-11-21T09:17:34;7.99;71.53
70826;SHT31;58446;41.490;22.098;2023-11-21T09:20:00;8.09;71.24
70826;SHT31;58446;41.490;22.098;2023-11-21T09:22:26;8.06;71.98
70826;SHT31;58446;41.490;22.098;2023-11-21T09:24:52;8.02;71.34
70826;SHT31;58446;41.490;22.098;2023-11-21T09:27:19;8.09;71.04
70826;SHT31;58446;41.490;22.098;2023-11-21T09:29:44;8.22;70.91
70826;SHT31;58446;41.490;22.098;2023-11-21T09:32:13;8.21;70.73
70826;SHT31;58446;41.490;22.098;2023-11-21T09:34:39;8.21;71.38
70826;SHT31;58446;41.490;22.098;2023-11-21T09:37:05;8.34;70.53
70826;SHT31;58446;41.490;22.098;2023-11-21T09:39:35;8.49;70.41
70826;SHT31;58446;41.490;22.098;2023-11-21T09:42:10;8.57;69.74
70826;SHT31;58446;41.490;22.098;2023-11-21T09:45:05;8.65;70.91
70826;SHT31;58446;41.490;22.098;2023-11-21T09:47:38;8.69;70.80
70826;SHT31;58446;41.490;22.098;2023-11-21T09:50:04;8.77;69.44
70826;SHT31;58446;41.490;22.098;2023-11-21T09:52:57;8.94;70.36
70826;SHT31;58446;41.490;22.098;2023-11-21T09:55:24;9.08;68.97
70826;SHT31;58446;41.490;22.098;2023-11-21T09:57:52;9.34;70.31
70826;SHT31;58446;41.490;22.098;2023-11-21T10:00:21;9.59;70.08
70826;SHT31;58446;41.490;22.098;2023-11-21T10:02:49;9.74;68.69
70826;SHT31;58446;41.490;22.098;2023-11-21T10:05:15;9.76;67.35
70826;SHT31;58446;41.490;22.098;2023-11-21T10:07:43;9.71;67.03
70826;SHT31;58446;41.490;22.098;2023-11-21T10:10:10;9.65;67.46
70826;SHT31;58446;41.490;22.098;2023-11-21T10:12:37;9.55;67.52
70826;SHT31;58446;41.490;22.098;2023-11-21T10:15:07;9.56;68.07
70826;SHT31;58446;41.490;22.098;2023-11-21T10:17:35;9.62;67.20
70826;SHT31;58446;41.490;22.098;2023-11-21T10:20:10;9.69;67.44
70826;SHT31;58446;41.490;22.098;2023-11-21T10:22:41;9.59;67.30
70826;SHT31;58446;41.490;22.098;2023-11-21T10:25:10;9.61;67.21
70826;SHT31;58446;41.490;22.098;2023-11-21T10:27:39;9.66;68.16
70826;SHT31;58446;41.490;22.098;2023-11-21T10:30:05;9.71;67.50
70826;SHT31;58446;41.490;22.098;2023-11-21T10:32:31;9.79;66.56
70826;SHT31;58446;41.490;22.098;2023-11-21T10:35:01;9.76;67.49
70826;SHT31;58446;41.490;22.098;2023-11-21T10:37:35;9.85;66.68
70826;SHT31;58446;41.490;22.098;2023-11-21T10:40:01;9.83;66.45
70826;SHT31;58446;41.490;22.098;2023-11-21T10:42:26;9.95;65.66
70826;SHT31;58446;41.490;22.098;2023-11-21T10:44:53;9.89;66.28
70826;SHT31;58446;41.490;22.098;2023-11-21T10:47:19;9.95;66.52
70826;SHT31;58446;41.490;22.098;2023-11-21T10:49:48;9.90;65.89
70826;SHT31;58446;41.490;22.098;2023-11-21T10:52:14;9.92;66.25
70826;SHT31;58446;41.490;22.098;2023-11-21T10:54:43;10.00;66.93
70826;SHT31;58446;41.490;22.098;2023-11-21T10:57:10;10.12;66.33
70826;SHT31;58446;41.490;22.098;2023-11-21T10:59:36;10.17;65.58
70826;SHT31;58446;41.490;22.098;2023-11-21T11:02:17;10.23;65.95
70826;SHT31;58446;41.490;22.098;2023-11-21T11:04:48;10.16;66.13
70826;SHT31;58446;41.490;22.098;2023-11-21T11:07:14;10.24;66.54
70826;SHT31;58446;41.490;22.098;2023-11-21T11:09:47;10.44;65.85
70826;SHT31;58446;41.490;22.098;2023-11-21T11:12:14;10.41;65.77
70826;SHT31;58446;41.490;22.098;2023-11-21T11:14:44;10.33;65.82
70826;SHT31;58446;41.490;22.098;2023-11-21T11:17:11;10.34;65.58
70826;SHT31;58446;41.490;22.098;2023-11-21T11:19:37;10.41;65.89
70826;SHT31;58446;41.490;22.098;2023-11-21T11:25:34;10.47;65.31
70826;SHT31;58446;41.490;22.098;2023-11-21T11:28:06;10.30;66.38
70826;SHT31;58446;41.490;22.098;2023-11-21T11:30:47;10.41;66.65
70826;SHT31;58446;41.490;22.098;2023-11-21T11:36:15;10.56;66.79
70826;SHT31;58446;41.490;22.098;2023-11-21T11:38:46;10.75;66.34
70826;SHT31;58446;41.490;22.098;2023-11-21T11:41:12;10.77;65.63
70826;SHT31;58446;41.490;22.098;2023-11-21T11:43:38;10.84;65.23
70826;SHT31;58446;41.490;22.098;2023-11-21T11:46:10;10.89;64.81
70826;SHT31;58446;41.490;22.098;2023-11-21T11:48:40;10.94;65.45
70826;SHT31;58446;41.490;22.098;2023-11-21T11:51:14;10.77;65.16
70826;SHT31;58446;41.490;22.098;2023-11-21T11:53:44;10.85;65.11
70826;SHT31;58446;41.490;22.098;2023-11-21T11:58:53;10.85;64.88
70826;SHT31;58446;41.490;22.098;2023-11-21T12:01:19;10.81;64.87
70826;SHT31;58446;41.490;22.098;2023-11-21T12:06:43;10.92;64.14
70826;SHT31;58446;41.490;22.098;2023-11-21T12:09:22;10.89;64.73
70826;SHT31;58446;41.490;22.098;2023-11-21T12:11:50;10.88;64.25
70826;SHT31;58446;41.490;22.098;2023-11-21T12:14:17;10.85;65.01
70826;SHT31;58446;41.490;22.098;2023-11-21T12:16:43;10.81;64.61
70826;SHT31;58446;41.490;22.098;2023-11-21T12:19:12;10.91;64.72
70826;SHT31;58446;41.490;22.098;2023-11-21T12:21:38;10.84;63.88
70826;SHT31;58446;41.490;22.098;2023-11-21T12:24:07;10.84;64.55
70826;SHT31;58446;41.490;22.098;2023-11-21T12:26:36;10.77;63.76
70826;SHT31;58446;41.490;22.098;2023-11-21T12:29:02;10.75;64.33
70826;SHT31;58446;41.490;22.098;2023-11-21T12:31:30;10.79;64.50
70826;SHT31;58446;41.490;22.098;2023-11-21T12:33:56;10.85;65.25
70826;SHT31;58446;41.490;22.098;2023-11-21T12:36:23;10.88;65.17
70826;SHT31;58446;41.490;22.098;2023-11-21T12:38:48;11.02;63.92
70826;SHT31;58446;41.490;22.098;2023-11-21T12:41:15;11.05;63.89
70826;SHT31;58446;41.490;22.098;2023-11-21T12:43:42;10.99;64.15
70826;SHT31;58446;41.490;22.098;2023-11-21T12:46:10;10.92;63.50
70826;SHT31;58446;41.490;22.098;2023-11-21T12:48:39;10.89;63.80
70826;SHT31;58446;41.490;22.098;2023-11-21T12:51:07;10.79;63.81
70826;SHT31;58446;41.490;22.098;2023-11-21T12:53:35;10.79;64.32
70826;SHT31;58446;41.490;22.098;2023-11-21T12:56:09;10.78;64.24
70826;SHT31;58446;41.490;22.098;2023-11-21T12:58:37;10.75;64.71
70826;SHT31;58446;41.490;22.098;2023-11-21T13:01:05;10.69;65.22
70826;SHT31;58446;41.490;22.098;2023-11-21T13:03:37;10.77;64.49
70826;SHT31;58446;41.490;22.098;2023-11-21T13:06:04;10.78;65.37
70826;SHT31;58446;41.490;22.098;2023-11-21T13:08:30;10.71;65.26
70826;SHT31;58446;41.490;22.098;2023-11-21T13:10:58;10.71;64.63
70826;SHT31;58446;41.490;22.098;2023-11-21T13:13:24;10.68;65.52
70826;SHT31;58446;41.490;22.098;2023-11-21T13:15:56;10.75;65.06
70826;SHT31;58446;41.490;22.098;2023-11-21T13:18:25;10.67;64.96
70826;SHT31;58446;41.490;22.098;2023-11-21T13:21:04;10.54;65.82
70826;SHT31;58446;41.490;22.098;2023-11-21T13:23:36;10.58;66.27
70826;SHT31;58446;41.490;22.098;2023-11-21T13:26:03;10.56;65.88
70826;SHT31;58446;41.490;22.098;2023-11-21T13:28:32;10.65;65.42
70826;SHT31;58446;41.490;22.098;2023-11-21T13:30:59;10.61;65.87
70826;SHT31;58446;41.490;22.098;2023-11-21T13:33:43;10.54;66.73
70826;SHT31;58446;41.490;22.098;2023-11-21T13:36:15;10.51;66.74
70826;SHT31;58446;41.490;22.098;2023-11-21T13:38:50;10.46;66.85
70826;SHT31;58446;41.490;22.098;2023-11-21T13:41:18;10.47;67.03
70826;SHT31;58446;41.490;22.098;2023-11-21T13:43:44;10.47;67.16
70826;SHT31;58446;41.490;22.098;2023-11-21T13:46:18;10.48;66.88
70826;SHT31;58446;41.490;22.098;2023-11-21T13:48:48;10.50;67.12
70826;SHT31;58446;41.490;22.098;2023-11-21T13:51:23;10.46;67.38
70826;SHT31;58446;41.490;22.098;2023-11-21T13:54:09;10.40;67.12
70826;SHT31;58446;41.490;22.098;2023-11-21T13:56:36;10.43;67.52
70826;SHT31;58446;41.490;22.098;2023-11-21T13:59:02;10.40;67.84
70826;SHT31;58446;41.490;22.098;2023-11-21T14:01:50;10.36;67.24
70826;SHT31;58446;41.490;22.098;2023-11-21T14:04:29;10.37;67.74
70826;SHT31;58446;41.490;22.098;2023-11-21T14:07:13;10.37;68.18
70826;SHT31;58446;41.490;22.098;2023-11-21T14:09:57;10.34;68.60
70826;SHT31;58446;41.490;22.098;2023-11-21T14:12:24;10.33;68.83
70826;SHT31;58446;41.490;22.098;2023-11-21T14:14:49;10.33;68.92
70826;SHT31;58446;41.490;22.098;2023-11-21T14:17:15;10.30;68.91
70826;SHT31;58446;41.490;22.098;2023-11-21T14:19:41;10.32;68.97
70826;SHT31;58446;41.490;22.098;2023-11-21T14:22:10;10.29;69.07
70826;SHT31;58446;41.490;22.098;2023-11-21T14:24:36;10.29;69.12
70826;SHT31;58446;41.490;22.098;2023-11-21T14:27:02;10.26;69.51
70826;SHT31;58446;41.490;22.098;2023-11-21T14:29:29;10.23;69.41
70826;SHT31;58446;41.490;22.098;2023-11-21T14:31:55;10.23;69.58
70826;SHT31;58446;41.490;22.098;2023-11-21T14:34:23;10.24;68.68
70826;SHT31;58446;41.490;22.098;2023-11-21T14:36:50;10.17;69.14
70826;SHT31;58446;41.490;22.098;2023-11-21T14:39:16;10.16;69.18
70826;SHT31;58446;41.490;22.098;2023-11-21T14:41:49;10.14;69.37
70826;SHT31;58446;41.490;22.098;2023-11-21T14:44:15;10.21;68.53
70826;SHT31;58446;41.490;22.098;2023-11-21T14:46:41;10.21;68.99
70826;SHT31;58446;41.490;22.098;2023-11-21T14:49:12;10.21;69.11
70826;SHT31;58446;41.490;22.098;2023-11-21T14:51:53;10.23;69.16
70826;SHT31;58446;41.490;22.098;2023-11-21T14:54:32;10.26;69.54
70826;SHT31;58446;41.490;22.098;2023-11-21T14:57:12;10.18;69.66
70826;SHT31;58446;41.490;22.098;2023-11-21T14:59:47;10.14;69.76
70826;SHT31;58446;41.490;22.098;2023-11-21T15:02:49;10.14;70.30
70826;SHT31;58446;41.490;22.098;2023-11-21T15:05:15;10.23;69.19
70826;SHT31;58446;41.490;22.098;2023-11-21T15:07:41;10.14;69.89
70826;SHT31;58446;41.490;22.098;2023-11-21T15:10:08;10.09;70.59
70826;SHT31;58446;41.490;22.098;2023-11-21T15:12:40;10.05;71.03
70826;SHT31;58446;41.490;22.098;2023-11-21T15:15:06;10.09;70.64
70826;SHT31;58446;41.490;22.098;2023-11-21T15:17:35;10.07;70.49
70826;SHT31;58446;41.490;22.098;2023-11-21T15:20:03;10.18;69.06
70826;SHT31;58446;41.490;22.098;2023-11-21T15:22:29;10.16;69.18
70826;SHT31;58446;41.490;22.098;2023-11-21T15:24:55;10.13;69.45
70826;SHT31;58446;41.490;22.098;2023-11-21T15:27:21;10.02;70.33
70826;SHT31;58446;41.490;22.098;2023-11-21T15:29:48;10.06;70.05
70826;SHT31;58446;41.490;22.098;2023-11-21T15:32:15;10.03;70.26
70826;SHT31;58446;41.490;22.098;2023-11-21T15:34:41;9.95;71.39
70826;SHT31;58446;41.490;22.098;2023-11-21T15:37:07;9.90;71.26
70826;SHT31;58446;41.490;22.098;2023-11-21T15:39:37;10.10;69.71
70826;SHT31;58446;41.490;22.098;2023-11-21T15:42:04;10.20;69.13